Time;durP1;ratioP1;P1;durP2;ratioP2;P2;SDS_P1;SDS_P2;PMS_P1;PMS_P2;Temp;Humidity;BMP_temperature;BMP_pressure;BME280_temperature;BME280_humidity;BME280_pressure;Samples;Min_cycle;Max_cycle;Signal;HPM_P1;HPM_P2
2021/07/08 00:00:51;;;;;;;6.13;3.10;;;;;;;19.03;66.15;100605.13;5034128;28;20053;-84
2021/07/08 00:03:19;;;;;;;5.50;3.03;;;;;;;19.07;66.34;100608.06;5047582;28;20065;-83
2021/07/08 00:05:47;;;;;;;4.97;3.10;;;;;;;19.10;66.20;100617.78;5057431;28;20080;-83
2021/07/08 00:08:15;;;;;;;5.32;2.95;;;;;;;19.11;66.08;100608.94;5058346;28;20056;-84
2021/07/08 00:10:45;;;;;;;5.82;3.30;;;;;;;19.14;65.77;100611.03;5058619;28;20053;-83
2021/07/08 00:13:13;;;;;;;5.53;3.30;;;;;;;19.16;65.83;100607.84;5055477;28;20049;-82
2021/07/08 00:15:44;;;;;;;5.60;3.30;;;;;;;19.17;65.96;100615.09;5057278;28;20075;-84
2021/07/08 00:18:13;;;;;;;4.95;3.17;;;;;;;19.14;65.79;100608.19;5057731;28;20040;-82
2021/07/08 00:20:42;;;;;;;5.63;3.22;;;;;;;19.13;65.67;100602.91;5052212;28;20049;-84
2021/07/08 00:23:10;;;;;;;6.47;3.40;;;;;;;19.00;65.97;100608.72;5050898;28;20049;-84
2021/07/08 00:25:38;;;;;;;7.13;3.40;;;;;;;18.99;66.30;100612.72;5057674;28;20060;-85
2021/07/08 00:28:12;;;;;;;4.93;3.55;;;;;;;18.95;66.51;100611.81;5044851;28;20053;-85
2021/07/08 00:30:40;;;;;;;6.10;3.70;;;;;;;18.91;66.64;100607.28;5059618;28;20072;-84
2021/07/08 00:33:10;;;;;;;6.68;4.13;;;;;;;18.83;66.99;100606.28;5056959;28;20993;-84
2021/07/08 00:35:39;;;;;;;6.07;3.75;;;;;;;18.67;67.56;100597.81;5049076;28;20052;-84
2021/07/08 00:38:08;;;;;;;7.45;3.80;;;;;;;18.62;67.64;100604.53;5055305;28;20493;-85
2021/07/08 00:40:36;;;;;;;7.20;3.95;;;;;;;18.57;67.97;100607.66;5050614;28;20398;-84
2021/07/08 00:43:04;;;;;;;7.10;4.07;;;;;;;18.52;68.09;100605.13;5055448;28;20049;-84
2021/07/08 00:45:31;;;;;;;7.65;3.83;;;;;;;18.46;68.30;100609.41;5051023;28;20049;-84
2021/07/08 00:47:59;;;;;;;4.88;3.90;;;;;;;18.37;68.64;100603.13;5057142;28;20049;-84
2021/07/08 00:50:30;;;;;;;7.53;3.92;;;;;;;18.32;68.78;100598.56;5057718;28;20063;-84
2021/07/08 00:53:00;;;;;;;7.53;3.88;;;;;;;18.25;68.70;100602.03;5057054;28;20048;-85
2021/07/08 00:55:27;;;;;;;;;;;;;;;18.16;68.70;100604.19;5058136;28;20048;-83
2021/07/08 00:57:55;;;;;;;7.10;3.90;;;;;;;18.07;69.13;100600.75;5057088;28;19921;-84
2021/07/08 01:00:26;;;;;;;6.47;3.90;;;;;;;18.01;69.10;100603.00;5055325;28;20045;-83
2021/07/08 01:02:54;;;;;;;7.15;4.13;;;;;;;17.91;69.43;100609.19;5051249;28;20048;-83
2021/07/08 01:05:24;;;;;;;7.90;3.83;;;;;;;17.88;69.58;100604.28;5057317;28;20059;-84
2021/07/08 01:07:53;;;;;;;9.05;4.30;;;;;;;17.83;69.63;100602.53;5056625;28;20045;-85
2021/07/08 01:10:21;;;;;;;7.22;4.25;;;;;;;17.73;69.99;100603.03;5057165;28;20516;-83
2021/07/08 01:12:48;;;;;;;6.15;4.40;;;;;;;17.67;70.19;100601.66;5057548;28;20045;-84
2021/07/08 01:15:17;;;;;;;9.32;4.32;;;;;;;17.62;70.42;100597.09;5058225;28;20053;-84
2021/07/08 01:17:45;;;;;;;5.97;4.20;;;;;;;17.57;70.68;100604.97;5056462;28;20053;-83
2021/07/08 01:20:14;;;;;;;7.57;4.50;;;;;;;17.53;70.76;100592.78;5057842;28;20048;-83
2021/07/08 01:22:43;;;;;;;10.07;4.68;;;;;;;17.54;70.65;100602.91;5054450;28;20056;-83
2021/07/08 01:25:13;;;;;;;7.32;5.00;;;;;;;17.51;70.58;100607.22;5054571;28;20056;-85
2021/07/08 01:27:40;;;;;;;7.85;5.15;;;;;;;17.49;70.63;100597.50;5056310;28;20056;-84
2021/07/08 01:30:10;;;;;;;8.25;4.43;;;;;;;17.47;70.82;100602.66;5038578;28;20374;-84
2021/07/08 01:32:38;;;;;;;5.47;3.90;;;;;;;17.42;70.87;100598.94;5050202;28;20053;-83
2021/07/08 01:35:09;;;;;;;9.23;4.70;;;;;;;17.37;71.07;100602.00;5050031;28;20064;-84
2021/07/08 01:37:37;;;;;;;7.80;4.50;;;;;;;17.34;71.21;100602.72;5057904;28;20103;-83
2021/07/08 01:40:10;;;;;;;6.85;4.90;;;;;;;17.31;71.24;100602.63;5061936;28;20045;-84
2021/07/08 01:42:38;;;;;;;6.32;4.93;;;;;;;17.27;71.66;100608.16;5061444;28;20053;-83
2021/07/08 01:45:10;;;;;;;7.45;5.60;;;;;;;17.24;71.51;100592.78;5062553;28;20053;-84
2021/07/08 01:47:38;;;;;;;8.73;5.30;;;;;;;17.20;71.50;100602.31;5060463;28;20128;-84
2021/07/08 01:50:07;;;;;;;6.10;3.97;;;;;;;17.21;71.41;100598.31;5060703;28;20057;-84
2021/07/08 01:52:34;;;;;;;;;;;;;;;17.18;70.83;100599.03;5060680;28;20152;-84
2021/07/08 01:55:04;;;;;;;7.93;4.32;;;;;;;17.12;71.00;100594.81;5061502;28;19920;-84
2021/07/08 01:57:35;;;;;;;10.35;5.20;;;;;;;16.99;71.73;100594.03;5054827;28;20418;-84
2021/07/08 02:00:05;;;;;;;6.90;4.78;;;;;;;17.00;71.71;100593.66;5063247;28;20487;-84
2021/07/08 02:02:32;;;;;;;6.85;4.20;;;;;;;17.00;71.46;100599.28;5060110;28;20064;-85
2021/07/08 02:08:22;;;;;;;8.52;4.57;;;;;;;16.93;71.81;100599.09;5064881;28;20048;-84
2021/07/08 02:10:50;;;;;;;9.18;4.53;;;;;;;16.91;71.75;100604.25;5061111;28;20049;-84
2021/07/08 02:13:19;;;;;;;5.40;4.30;;;;;;;16.84;71.91;100604.03;5050447;28;20060;-84
2021/07/08 02:15:46;;;;;;;10.02;4.32;;;;;;;16.79;71.98;100598.59;5033441;28;20060;-84
2021/07/08 02:18:14;;;;;;;7.45;4.45;;;;;;;16.75;72.18;100604.09;5047813;28;20486;-84
2021/07/08 02:20:42;;;;;;;8.18;4.90;;;;;;;16.74;71.92;100598.84;5060928;28;20414;-84
2021/07/08 02:23:09;;;;;;;6.85;4.25;;;;;;;16.67;72.32;100607.06;5059921;28;20076;-84
2021/07/08 02:25:37;;;;;;;8.63;5.07;;;;;;;16.63;72.28;100601.31;5059828;28;20543;-84
2021/07/08 02:28:05;;;;;;;7.82;4.75;;;;;;;16.62;72.39;100599.69;5058555;28;20053;-84
2021/07/08 02:30:33;;;;;;;8.00;4.43;;;;;;;16.63;71.91;100606.94;5060968;28;20402;-84
2021/07/08 02:33:01;;;;;;;8.23;4.20;;;;;;;16.62;71.62;100600.50;5054197;28;20057;-84
2021/07/08 03:09:26;;;;;;;7.18;4.75;;;;;;;16.41;72.43;100588.56;5063306;23;20048;-61
2021/07/08 03:11:54;;;;;;;6.32;4.88;;;;;;;16.36;72.58;100598.03;5093374;28;20052;-62
2021/07/08 03:14:21;;;;;;;9.48;5.00;;;;;;;16.37;72.84;100596.03;5090764;28;20067;-62
2021/07/08 03:16:48;;;;;;;7.53;5.10;;;;;;;16.37;72.92;100612.91;5081511;28;20052;-62
2021/07/08 03:19:19;;;;;;;9.77;5.53;;;;;;;16.40;72.86;100603.78;5093430;28;20052;-62
2021/07/08 03:21:46;;;;;;;7.63;5.13;;;;;;;16.41;72.71;100605.41;5093936;28;20507;-62
2021/07/08 03:24:13;;;;;;;8.52;5.20;;;;;;;16.38;72.69;100606.13;5091848;28;20056;-62
2021/07/08 03:26:42;;;;;;;13.60;6.50;;;;;;;16.35;72.74;100613.25;5094872;28;20056;-62
2021/07/08 03:29:10;;;;;;;9.52;5.57;;;;;;;16.37;72.77;100615.72;5091258;28;20404;-62
2021/07/08 03:31:37;;;;;;;7.05;5.07;;;;;;;16.36;72.99;100614.09;5093834;28;20079;-62
2021/07/08 03:34:04;;;;;;;9.88;5.35;;;;;;;16.36;72.95;100614.91;5089919;28;20059;-62
2021/07/08 03:36:32;;;;;;;7.38;4.82;;;;;;;16.39;72.73;100619.00;5074133;28;20063;-62
2021/07/08 03:38:59;;;;;;;8.25;4.75;;;;;;;16.41;72.89;100619.47;5085819;28;20480;-62
2021/07/08 03:41:29;;;;;;;6.72;5.22;;;;;;;16.43;72.83;100611.50;5089143;28;20074;-62
2021/07/08 03:43:58;;;;;;;8.45;5.07;;;;;;;16.44;72.74;100615.94;5092595;28;20079;-62
2021/07/08 03:46:26;;;;;;;9.20;5.60;;;;;;;16.41;72.81;100623.09;5091298;28;20051;-61
2021/07/08 03:48:53;;;;;;;7.60;4.85;;;;;;;16.46;72.92;100624.84;5093451;28;20063;-62
2021/07/08 03:51:20;;;;;;;7.00;4.95;;;;;;;16.51;72.89;100624.63;5093936;28;20070;-62
2021/07/08 03:53:48;;;;;;;8.55;4.70;;;;;;;16.56;72.69;100624.41;5092635;28;20056;-62
2021/07/08 03:56:15;;;;;;;7.05;4.90;;;;;;;16.59;72.75;100617.28;5090662;28;20048;-62
2021/07/08 03:58:42;;;;;;;7.35;4.90;;;;;;;16.62;72.74;100622.97;5093081;28;20480;-62
2021/07/08 04:01:11;;;;;;;6.93;4.05;;;;;;;16.69;72.58;100624.41;5088219;28;20059;-62
2021/07/08 04:03:38;;;;;;;6.93;4.30;;;;;;;16.73;72.33;100633.78;5092815;28;20058;-62
2021/07/08 04:06:06;;;;;;;8.48;4.65;;;;;;;16.80;72.07;100636.84;5093035;28;20059;-62
2021/07/08 04:08:34;;;;;;;9.43;4.30;;;;;;;16.82;71.48;100640.16;5092311;28;20059;-62
2021/07/08 04:11:01;;;;;;;11.73;4.25;;;;;;;16.89;71.67;100633.91;5091434;28;20519;-62
2021/07/08 04:13:29;;;;;;;7.72;4.43;;;;;;;16.96;71.29;100628.50;5090218;28;20083;-62
2021/07/08 04:15:57;;;;;;;9.98;4.22;;;;;;;17.02;71.12;100630.72;5091784;28;20508;-62
2021/07/08 04:18:26;;;;;;;5.50;3.80;;;;;;;17.11;70.89;100632.56;5091907;28;20052;-62
2021/07/08 04:20:53;;;;;;;8.38;3.72;;;;;;;17.16;70.74;100640.78;5092003;28;20500;-62
2021/07/08 04:23:21;;;;;;;7.25;3.58;;;;;;;17.15;70.52;100634.31;5091736;28;20056;-62
2021/07/08 04:25:48;;;;;;;7.68;4.20;;;;;;;17.24;70.02;100614.50;5092693;28;20489;-62
2021/07/08 04:28:16;;;;;;;9.55;4.43;;;;;;;17.29;70.12;100611.44;5088676;28;20055;-62
2021/07/08 04:30:44;;;;;;;9.00;4.65;;;;;;;17.36;70.13;100622.06;5093459;28;20059;-62
2021/07/08 04:33:12;;;;;;;7.30;4.43;;;;;;;17.44;69.81;100621.91;5091723;28;20055;-62
2021/07/08 04:35:41;;;;;;;8.90;4.57;;;;;;;17.51;69.55;100631.75;5090580;28;20059;-61
2021/07/08 04:38:09;;;;;;;11.15;4.53;;;;;;;17.58;69.20;100634.81;5092254;28;20055;-62
2021/07/08 04:40:38;;;;;;;8.83;3.87;;;;;;;17.58;69.31;100637.63;5090535;28;20079;-62
2021/07/08 04:43:06;;;;;;;8.18;4.68;;;;;;;17.48;69.59;100630.47;5092084;28;20496;-62
2021/07/08 04:45:34;;;;;;;5.97;4.25;;;;;;;17.61;69.36;100636.88;5092970;28;20056;-62
2021/07/08 04:48:02;;;;;;;8.10;3.92;;;;;;;17.68;69.13;100637.09;5087920;28;20056;-62
2021/07/08 04:50:31;;;;;;;7.38;4.32;;;;;;;17.72;68.96;100638.00;5092089;28;20060;-62
2021/07/08 04:52:59;;;;;;;7.90;4.72;;;;;;;17.60;69.65;100640.91;5090766;28;20488;-62
2021/07/08 04:55:27;;;;;;;6.37;4.23;;;;;;;17.75;69.03;100633.66;5090914;28;20056;-62
2021/07/08 04:57:56;;;;;;;7.22;4.28;;;;;;;17.79;68.83;100638.22;5089876;28;20051;-62
2021/07/08 05:00:24;;;;;;;11.85;4.45;;;;;;;17.85;69.12;100630.38;5089627;28;20060;-62
2021/07/08 05:02:54;;;;;;;6.10;4.20;;;;;;;17.93;69.11;100632.22;5090965;28;20063;-62
2021/07/08 05:05:21;;;;;;;7.15;4.57;;;;;;;18.02;68.98;100643.31;5092386;28;20056;-62
2021/07/08 05:07:50;;;;;;;8.68;4.60;;;;;;;18.08;68.95;100638.19;5091853;28;20060;-62
2021/07/08 05:10:19;;;;;;;7.78;4.78;;;;;;;18.15;68.67;100636.41;5090454;28;20059;-62
2021/07/08 05:12:47;;;;;;;10.63;4.75;;;;;;;18.20;68.66;100624.84;5083150;28;20052;-62
2021/07/08 05:15:15;;;;;;;7.25;4.45;;;;;;;18.30;68.26;100633.97;5087887;28;20064;-62
2021/07/08 05:17:46;;;;;;;8.10;4.80;;;;;;;18.35;68.00;100644.97;5083351;28;20074;-62
2021/07/08 05:20:15;;;;;;;6.28;4.40;;;;;;;18.41;67.78;100655.59;5082737;28;20049;-62
2021/07/08 05:22:45;;;;;;;6.32;4.60;;;;;;;18.49;67.75;100650.16;5086610;28;20059;-62
2021/07/08 05:25:16;;;;;;;8.70;4.18;;;;;;;18.54;67.50;100649.88;5082101;28;20083;-62
2021/07/08 05:27:45;;;;;;;11.50;5.00;;;;;;;18.60;67.20;100646.41;5084419;28;20056;-62
2021/07/08 05:30:13;;;;;;;7.28;4.60;;;;;;;18.65;66.98;100637.69;5083475;28;20071;-62
2021/07/08 05:32:41;;;;;;;6.22;4.28;;;;;;;18.73;67.24;100640.66;5090358;28;20060;-62
2021/07/08 05:35:09;;;;;;;5.55;4.07;;;;;;;18.82;67.06;100630.88;5085618;28;20064;-62
2021/07/08 05:37:39;;;;;;;9.38;4.10;;;;;;;18.91;66.39;100633.50;5085623;28;20056;-62
2021/07/08 05:40:08;;;;;;;7.05;4.13;;;;;;;18.90;66.52;100631.88;5088086;28;20084;-62
2021/07/08 05:42:36;;;;;;;6.53;4.45;;;;;;;19.01;66.04;100621.63;5086456;28;20052;-62
2021/07/08 05:45:06;;;;;;;12.45;4.55;;;;;;;19.04;65.87;100637.81;5078331;28;20366;-62
2021/07/08 05:47:34;;;;;;;8.00;4.85;;;;;;;19.08;65.28;100648.38;5088482;28;20063;-62
2021/07/08 05:50:01;;;;;;;7.85;4.60;;;;;;;19.10;64.94;100660.94;5089650;28;20052;-62
2021/07/08 05:52:29;;;;;;;6.22;4.45;;;;;;;19.18;65.06;100650.66;5089387;28;20362;-62
2021/07/08 05:54:57;;;;;;;6.20;4.18;;;;;;;19.22;65.12;100645.91;5090025;28;20056;-62
2021/07/08 05:57:24;;;;;;;8.93;4.40;;;;;;;19.25;65.12;100650.78;5085843;28;20041;-62
2021/07/08 05:59:54;;;;;;;8.82;4.55;;;;;;;19.31;64.93;100648.50;5087999;28;20052;-62
2021/07/08 06:02:23;;;;;;;6.57;4.53;;;;;;;19.37;64.85;100649.84;5082082;28;20049;-62
2021/07/08 06:04:50;;;;;;;6.40;4.13;;;;;;;19.44;65.11;100656.50;5083697;28;20063;-62
2021/07/08 06:07:17;;;;;;;8.82;4.43;;;;;;;19.51;64.73;100667.13;5089827;28;20497;-62
2021/07/08 06:09:45;;;;;;;8.88;4.63;;;;;;;19.55;64.99;100658.69;5084781;28;20485;-62
2021/07/08 06:12:12;;;;;;;10.13;4.95;;;;;;;19.71;64.10;100653.81;5080622;28;20048;-63
2021/07/08 06:14:40;;;;;;;8.95;4.40;;;;;;;19.82;63.71;100649.22;5087930;28;20495;-62
2021/07/08 06:17:08;;;;;;;6.63;4.45;;;;;;;19.94;63.54;100656.72;5081366;28;20044;-62
2021/07/08 06:19:36;;;;;;;9.00;4.88;;;;;;;20.11;63.41;100646.94;5081351;28;20056;-62
2021/07/08 06:22:04;;;;;;;8.38;4.35;;;;;;;20.27;62.75;100652.50;5081102;28;20052;-62
2021/07/08 06:24:32;;;;;;;7.30;4.60;;;;;;;20.43;62.13;100641.03;5084242;28;20059;-62
2021/07/08 06:30:30;;;;;;;6.15;4.50;;;;;;;20.82;60.69;100638.06;5089082;28;20051;-62
2021/07/08 06:32:58;;;;;;;6.47;4.28;;;;;;;20.98;60.04;100638.75;5075686;28;20067;-62
2021/07/08 06:35:26;;;;;;;6.57;4.60;;;;;;;21.29;59.09;100634.75;5093595;28;20052;-62
2021/07/08 06:37:54;;;;;;;9.73;4.40;;;;;;;21.55;58.39;100643.59;5092522;28;20067;-63
2021/07/08 06:40:21;;;;;;;8.23;3.95;;;;;;;21.81;57.89;100642.69;5074449;28;20056;-63
2021/07/08 06:42:49;;;;;;;7.90;3.63;;;;;;;22.01;56.83;100651.84;5082161;28;20056;-63
2021/07/08 06:45:17;;;;;;;6.85;4.30;;;;;;;22.21;56.73;100658.13;5095107;28;20396;-63
2021/07/08 06:47:46;;;;;;;7.00;3.75;;;;;;;22.41;55.79;100662.41;5094984;28;20063;-63
2021/07/08 06:50:14;;;;;;;8.93;4.50;;;;;;;22.58;55.76;100682.84;5089223;28;20052;-62
2021/07/08 06:52:44;;;;;;;11.10;4.35;;;;;;;22.70;55.05;100686.19;5083074;28;20056;-62
2021/07/08 06:55:13;;;;;;;6.70;3.97;;;;;;;22.84;55.17;100685.50;5079243;28;20056;-62
2021/07/08 06:57:50;;;;;;;6.10;4.57;;;;;;;22.96;54.46;100684.38;5074067;28;20064;-62
2021/07/08 07:00:19;;;;;;;8.57;3.67;;;;;;;23.06;54.25;100689.34;5079323;28;20060;-62
2021/07/08 07:02:46;;;;;;;7.35;3.95;;;;;;;23.19;53.72;100687.00;5085190;28;20064;-62
2021/07/08 07:05:14;;;;;;;7.10;4.20;;;;;;;23.26;54.98;100680.53;5082044;28;20053;-62
2021/07/08 07:07:43;;;;;;;5.57;4.05;;;;;;;23.30;54.61;100687.06;5089473;28;20060;-62
2021/07/08 07:10:11;;;;;;;5.70;3.80;;;;;;;23.25;55.16;100693.94;5082629;28;20052;-62
2021/07/08 07:12:42;;;;;;;7.20;4.38;;;;;;;23.20;55.30;100693.50;5077081;28;20055;-62
2021/07/08 07:15:11;;;;;;;7.15;4.38;;;;;;;23.10;56.08;100695.88;5090663;28;20067;-62
2021/07/08 07:17:39;;;;;;;6.55;4.68;;;;;;;23.03;56.81;100704.34;5092919;28;20390;-62
2021/07/08 07:20:08;;;;;;;5.35;3.95;;;;;;;23.04;56.87;100697.47;5089641;28;20408;-62
2021/07/08 07:22:36;;;;;;;7.18;3.97;;;;;;;22.87;56.53;100689.59;5081916;28;20061;-62
2021/07/08 07:25:07;;;;;;;5.88;4.20;;;;;;;22.87;57.38;100698.91;5079994;28;20060;-62
2021/07/08 07:27:34;;;;;;;7.88;3.80;;;;;;;22.88;57.14;100694.84;5075353;28;20064;-62
2021/07/08 07:30:05;;;;;;;9.50;3.97;;;;;;;22.88;57.90;100694.03;5089663;28;20056;-62
2021/07/08 07:32:32;;;;;;;6.25;3.67;;;;;;;22.90;57.20;100697.31;5083272;28;20056;-63
2021/07/08 07:35:00;;;;;;;7.55;3.90;;;;;;;22.99;57.51;100694.13;5091539;28;20052;-63
2021/07/08 07:37:28;;;;;;;7.75;3.78;;;;;;;23.01;57.70;100695.38;5078287;28;20057;-63
2021/07/08 07:39:56;;;;;;;6.07;3.63;;;;;;;23.10;58.28;100697.91;5091037;28;20493;-63
2021/07/08 07:42:24;;;;;;;8.60;4.85;;;;;;;23.17;57.38;100697.94;5085808;28;20051;-63
2021/07/08 07:44:52;;;;;;;5.80;3.17;;;;;;;23.30;56.31;100698.44;5092658;28;20060;-63
2021/07/08 07:47:19;;;;;;;7.90;3.95;;;;;;;23.45;56.36;100693.66;5094045;28;20056;-63
2021/07/08 07:49:47;;;;;;;7.22;4.15;;;;;;;23.54;55.05;100691.28;5093735;28;20382;-63
2021/07/08 07:52:16;;;;;;;5.07;2.42;;;;;;;23.68;52.05;100696.22;5094426;28;20059;-63
2021/07/08 07:54:43;;;;;;;4.65;2.90;;;;;;;23.90;52.70;100691.47;5093748;28;20515;-63
2021/07/08 07:57:11;;;;;;;5.22;2.70;;;;;;;24.46;50.96;100697.69;5094101;28;20063;-63
2021/07/08 07:59:40;;;;;;;4.80;2.40;;;;;;;25.66;46.17;100700.09;5093389;28;20048;-63
2021/07/08 08:02:10;;;;;;;;;;;;;;;26.95;42.70;100696.50;5092092;28;20052;-63
2021/07/08 08:04:43;;;;;;;4.80;2.83;;;;;;;28.01;40.80;100692.94;5082705;28;19991;-63
2021/07/08 08:09:57;;;;;;;3.78;2.47;;;;;;;29.65;38.24;100691.50;5093176;28;20055;-63
2021/07/08 08:12:25;;;;;;;4.25;2.42;;;;;;;30.75;34.60;100690.28;5093783;28;20067;-63
2021/07/08 08:14:54;;;;;;;3.42;2.47;;;;;;;31.32;32.59;100681.44;5093556;28;20071;-63
2021/07/08 08:17:21;;;;;;;;;;;;;;;30.95;32.43;100678.72;5094506;28;20063;-63
2021/07/08 08:19:49;;;;;;;4.50;2.33;;;;;;;32.56;31.08;100673.22;5093074;28;19927;-64
2021/07/08 08:22:18;;;;;;;4.43;2.30;;;;;;;32.75;31.12;100677.13;5093109;28;20485;-64
2021/07/08 08:24:49;;;;;;;3.63;2.17;;;;;;;33.15;30.57;100670.81;5092737;28;20404;-64
2021/07/08 08:27:16;;;;;;;3.55;2.05;;;;;;;33.24;29.62;100666.41;5083851;28;20401;-64
2021/07/08 08:29:43;;;;;;;3.00;2.30;;;;;;;33.55;29.21;100657.84;5090709;28;20052;-62
2021/07/08 08:32:12;;;;;;;4.55;1.95;;;;;;;34.69;27.45;100661.25;5088394;28;20056;-64
2021/07/08 08:34:40;;;;;;;4.43;2.53;;;;;;;35.41;26.44;100651.56;5073166;28;20382;-64
2021/07/08 08:37:07;;;;;;;4.80;2.03;;;;;;;36.22;25.45;100659.78;5092052;28;20397;-64
2021/07/08 08:39:35;;;;;;;4.53;2.13;;;;;;;37.37;23.37;100654.78;5093030;28;20048;-64
2021/07/08 08:42:02;;;;;;;3.80;1.83;;;;;;;38.21;22.85;100652.66;5075727;28;20470;-62
2021/07/08 08:44:32;;;;;;;4.43;2.10;;;;;;;38.62;22.55;100658.63;5085697;28;20046;-63
2021/07/08 08:47:00;;;;;;;3.10;2.13;;;;;;;38.89;22.62;100653.66;5092426;28;20056;-63
2021/07/08 08:49:29;;;;;;;4.00;2.17;;;;;;;39.40;21.26;100658.09;5092528;28;20055;-63
2021/07/08 08:51:57;;;;;;;3.83;2.30;;;;;;;39.82;21.03;100653.75;5092453;28;20052;-63
2021/07/08 08:54:24;;;;;;;3.85;2.15;;;;;;;40.58;19.84;100650.44;5093326;28;20048;-63
2021/07/08 08:56:52;;;;;;;4.43;2.30;;;;;;;41.44;18.63;100643.69;5092631;28;20074;-63
2021/07/08 08:59:19;;;;;;;3.58;2.00;;;;;;;41.19;18.27;100645.47;5092475;28;20060;-63
2021/07/08 09:02:10;;;;;;;4.27;1.93;;;;;;;41.44;18.42;100648.75;5091226;28;20060;-64
2021/07/08 09:04:38;;;;;;;3.00;1.90;;;;;;;42.22;17.53;100653.13;5092448;28;20060;-63
2021/07/08 09:07:26;;;;;;;4.78;2.33;;;;;;;42.90;16.04;100639.97;5092363;28;20056;-63
2021/07/08 09:09:55;;;;;;;4.85;1.70;;;;;;;42.77;16.11;100651.44;5091546;28;20508;-63
2021/07/08 09:12:24;;;;;;;4.05;1.90;;;;;;;42.63;16.07;100658.41;5093029;28;20408;-63
2021/07/08 09:14:53;;;;;;;4.15;1.60;;;;;;;42.50;16.01;100644.31;5092829;28;20500;-63
2021/07/08 09:17:22;;;;;;;3.38;1.83;;;;;;;43.40;16.83;100652.81;5092784;28;20063;-63
2021/07/08 09:20:08;;;;;;;4.25;1.95;;;;;;;44.06;15.51;100652.13;5091622;28;20527;-63
2021/07/08 09:22:38;;;;;;;4.53;2.03;;;;;;;44.75;14.33;100651.75;5093095;28;20056;-63
2021/07/08 09:25:25;;;;;;;3.65;1.58;;;;;;;45.06;13.96;100651.66;5092082;28;20071;-63
2021/07/08 09:28:11;;;;;;;2.08;1.85;;;;;;;45.85;14.19;100665.31;5079426;28;20060;-63
2021/07/08 09:30:39;;;;;;;2.15;1.80;;;;;;;46.52;12.72;100651.59;5086823;28;20048;-63
2021/07/08 09:33:29;;;;;;;2.97;1.50;;;;;;;45.84;12.66;100651.91;5092783;28;20488;-63
2021/07/08 09:36:06;;;;;;;3.60;1.80;;;;;;;44.87;13.11;100660.44;5090236;28;20059;-63
2021/07/08 09:38:36;;;;;;;2.95;1.90;;;;;;;45.18;13.01;100668.59;5092430;28;20048;-63
2021/07/08 09:41:07;;;;;;;4.20;2.15;;;;;;;45.69;13.54;100661.25;5091998;28;20501;-63
2021/07/08 09:43:37;;;;;;;3.83;2.10;;;;;;;46.57;12.60;100660.31;5073868;28;20068;-65
2021/07/08 09:46:04;;;;;;;3.55;2.00;;;;;;;46.91;11.78;100659.66;5088553;28;20066;-64
2021/07/08 09:48:32;;;;;;;2.90;2.05;;;;;;;47.63;11.35;100655.72;5092276;28;20048;-64
2021/07/08 09:51:00;;;;;;;3.53;1.77;;;;;;;48.44;11.22;100662.03;5091609;28;20055;-64
2021/07/08 09:53:30;;;;;;;3.10;2.03;;;;;;;47.77;10.81;100650.53;5091953;28;20064;-64
2021/07/08 09:56:08;;;;;;;4.28;1.70;;;;;;;46.52;11.79;100657.47;5091766;28;20409;-63
2021/07/08 09:58:50;;;;;;;2.75;1.45;;;;;;;43.99;13.90;100654.28;5092580;28;20068;-63
2021/07/08 10:01:18;;;;;;;2.88;1.30;;;;;;;42.26;15.36;100657.38;5095941;28;20052;-63
2021/07/08 10:03:45;;;;;;;2.40;1.40;;;;;;;41.24;15.78;100658.50;5096001;28;20357;-63
2021/07/08 10:06:13;;;;;;;3.10;1.50;;;;;;;39.87;17.33;100661.78;5095377;28;20067;-63
2021/07/08 10:08:42;;;;;;;3.53;1.30;;;;;;;38.54;18.76;100657.44;5095854;28;20047;-63
2021/07/08 10:11:13;;;;;;;4.75;2.00;;;;;;;37.38;20.33;100659.28;5075221;28;20061;-63
2021/07/08 10:13:41;;;;;;;3.45;1.70;;;;;;;36.36;21.48;100665.69;5075512;28;20057;-63
2021/07/08 10:16:10;;;;;;;6.00;2.30;;;;;;;35.34;25.70;100661.34;5074466;28;20066;-62
2021/07/08 10:18:39;;;;;;;5.50;2.30;;;;;;;34.65;28.72;100663.50;5075146;28;20060;-62
2021/07/08 10:21:08;;;;;;;4.85;2.78;;;;;;;33.81;31.73;100670.09;5076075;28;20056;-62
2021/07/08 10:23:35;;;;;;;;;;;;;;;33.06;31.02;100658.38;5075892;28;20049;-62
2021/07/08 10:26:07;;;;;;;6.70;3.10;;;;;;;32.22;34.55;100668.13;5075311;28;20388;-62
2021/07/08 10:28:40;;;;;;;4.10;2.25;;;;;;;31.68;36.11;100668.94;5075735;28;20068;-63
2021/07/08 10:31:08;;;;;;;4.78;2.53;;;;;;;31.14;37.33;100665.47;5074994;28;20059;-62
2021/07/08 10:33:35;;;;;;;4.47;2.42;;;;;;;30.82;36.90;100659.72;5074827;28;20488;-62
2021/07/08 10:36:03;;;;;;;4.45;2.10;;;;;;;30.65;36.60;100656.03;5065196;28;20063;-62
2021/07/08 10:38:39;;;;;;;3.80;2.58;;;;;;;30.63;39.32;100656.47;5074920;28;20063;-62
2021/07/08 10:41:43;;;;;;;4.30;2.40;;;;;;;31.06;36.07;100649.66;5074453;28;20060;-62
2021/07/08 10:44:40;;;;;;;4.70;2.10;;;;;;;32.26;34.12;100656.50;5070868;28;20057;-63
2021/07/08 10:47:28;;;;;;;3.67;2.33;;;;;;;32.54;34.43;100664.22;5075011;28;20496;-63
2021/07/08 10:49:55;;;;;;;5.35;2.17;;;;;;;33.05;33.80;100666.19;5074182;28;20052;-63
2021/07/08 10:52:42;;;;;;;3.67;2.13;;;;;;;33.81;31.14;100664.31;5074516;28;20052;-62
2021/07/08 10:55:10;;;;;;;5.20;2.50;;;;;;;35.02;30.70;100654.88;5074358;28;20052;-62
2021/07/08 10:57:41;;;;;;;3.20;2.38;;;;;;;36.23;28.54;100649.81;5074580;28;20060;-63
2021/07/08 11:00:10;;;;;;;3.55;2.33;;;;;;;37.24;27.36;100645.53;5074924;28;20048;-63
2021/07/08 11:02:48;;;;;;;4.90;2.00;;;;;;;37.87;24.75;100651.25;5074623;28;20059;-63
2021/07/08 11:05:50;;;;;;;4.13;1.92;;;;;;;38.94;25.08;100655.88;5066311;28;20401;-63
2021/07/08 11:08:59;;;;;;;4.32;2.40;;;;;;;39.91;22.26;100644.06;5054214;28;20065;-63
2021/07/08 11:12:00;;;;;;;3.88;2.22;;;;;;;38.92;23.74;100656.38;5052966;28;20087;-63
2021/07/08 11:14:33;;;;;;;6.45;2.13;;;;;;;38.45;23.39;100648.78;5073981;28;20052;-63
2021/07/08 11:17:14;;;;;;;4.55;2.17;;;;;;;37.86;23.92;100650.44;5074305;28;20048;-63
2021/07/08 11:19:45;;;;;;;4.40;1.67;;;;;;;37.18;23.73;100640.41;5074273;28;20063;-63
2021/07/08 11:22:24;;;;;;;4.18;1.75;;;;;;;36.49;23.93;100644.34;5054667;28;20056;-63
2021/07/08 11:24:53;;;;;;;2.25;1.42;;;;;;;35.64;24.36;100645.09;5067966;28;20052;-63
2021/07/08 11:27:33;;;;;;;3.45;1.45;;;;;;;34.54;25.04;100639.94;5074297;28;20057;-63
2021/07/08 11:30:24;;;;;;;3.75;1.67;;;;;;;33.60;26.57;100647.75;5073650;28;20064;-63
2021/07/08 11:32:54;;;;;;;3.15;1.35;;;;;;;32.81;28.67;100641.94;5065733;28;20457;-62
2021/07/08 11:35:25;;;;;;;2.85;1.42;;;;;;;32.41;28.22;100634.56;5065946;28;20060;-63
2021/07/08 11:37:55;;;;;;;5.07;1.60;;;;;;;32.08;29.20;100637.69;5074011;28;20060;-63
2021/07/08 11:40:25;;;;;;;3.17;1.60;;;;;;;31.44;32.07;100642.47;5074021;28;20056;-62
2021/07/08 11:42:53;;;;;;;2.08;1.55;;;;;;;31.14;33.30;100636.69;5055283;28;20374;-62
2021/07/08 11:45:24;;;;;;;;;;;;;;;30.69;33.56;100648.94;5067677;28;20151;-62
2021/07/08 11:47:53;;;;;;;3.53;1.83;;;;;;;30.28;34.92;100646.63;5074365;28;19927;-62
2021/07/08 11:50:22;;;;;;;5.30;1.70;;;;;;;29.85;36.19;100639.81;5074052;28;20413;-62
2021/07/08 11:53:06;;;;;;;4.47;1.73;;;;;;;29.44;36.49;100641.06;5074073;28;20055;-62
2021/07/08 11:55:34;;;;;;;2.95;1.67;;;;;;;29.28;37.03;100636.03;5074139;28;20044;-62
2021/07/08 11:58:03;;;;;;;2.90;1.80;;;;;;;28.92;37.45;100642.41;5073076;28;20060;-62
2021/07/08 12:00:36;;;;;;;;;;;;;;;28.88;38.36;100632.28;5074517;28;20504;-62
2021/07/08 12:03:18;;;;;;;4.72;2.25;;;;;;;28.96;39.22;100625.16;5074218;28;19928;-62
2021/07/08 12:05:48;;;;;;;3.83;2.03;;;;;;;29.16;39.75;100633.81;5061535;28;20746;-62
2021/07/08 12:08:27;;;;;;;5.13;2.30;;;;;;;29.17;39.32;100634.63;5068179;28;20060;-62
2021/07/08 12:10:57;;;;;;;5.68;2.17;;;;;;;29.13;38.17;100635.50;5091272;28;20058;-62
2021/07/08 12:13:27;;;;;;;4.60;2.20;;;;;;;29.03;38.70;100639.34;5093223;28;20496;-62
2021/07/08 12:16:04;;;;;;;6.60;2.50;;;;;;;28.95;40.93;100641.53;5092894;28;20064;-62
2021/07/08 12:18:39;;;;;;;3.83;2.33;;;;;;;29.09;40.49;100637.59;5093543;28;20543;-62
2021/07/08 12:21:24;;;;;;;4.10;2.22;;;;;;;29.11;40.16;100642.94;5093005;28;20052;-62
2021/07/08 12:23:52;;;;;;;3.80;2.63;;;;;;;28.92;40.44;100641.63;5091560;28;20067;-62